createdAt,value
2017-09-09T00:01:54.502Z,85.30
2017-09-09T00:04:22.190Z,85.40
2017-09-09T00:06:49.829Z,85.30
2017-09-09T00:09:17.474Z,85.30
2017-09-09T00:11:45.162Z,85.20
2017-09-09T00:14:12.793Z,85.00
2017-09-09T00:16:40.430Z,85.00
2017-09-09T00:19:08.129Z,84.80
2017-09-09T00:21:36.165Z,84.50
2017-09-09T00:24:03.812Z,84.50
2017-09-09T00:26:31.500Z,84.40
2017-09-09T00:28:59.134Z,84.00
2017-09-09T00:31:26.779Z,83.70
2017-09-09T00:33:54.581Z,84.00
2017-09-09T00:36:22.237Z,84.20
2017-09-09T00:38:49.982Z,84.50
2017-09-09T00:41:17.715Z,84.70
2017-09-09T00:43:45.378Z,84.60
2017-09-09T00:46:13.120Z,84.80
2017-09-09T00:48:41.000Z,85.00
2017-09-09T00:51:08.675Z,85.40
2017-09-09T00:53:36.465Z,85.70
2017-09-09T00:56:04.185Z,85.90
2017-09-09T00:58:31.959Z,85.80
2017-09-09T01:00:59.706Z,85.50
2017-09-09T01:03:27.658Z,85.10
2017-09-09T01:05:55.334Z,84.40
2017-09-09T01:08:23.050Z,84.50
2017-09-09T01:10:50.902Z,84.90
2017-09-09T01:13:18.650Z,85.30
2017-09-09T01:15:46.342Z,85.30
2017-09-09T01:18:14.144Z,84.70
2017-09-09T01:20:41.867Z,84.50
2017-09-09T01:23:09.639Z,84.60
2017-09-09T01:25:37.390Z,85.10
2017-09-09T01:28:05.107Z,85.20
2017-09-09T01:30:32.753Z,85.50
2017-09-09T01:33:00.542Z,85.60
2017-09-09T01:35:28.272Z,85.40
2017-09-09T01:37:55.915Z,85.50
2017-09-09T01:40:23.598Z,85.50
2017-09-09T01:42:51.231Z,85.30
2017-09-09T01:45:19.266Z,85.40
2017-09-09T01:47:46.961Z,85.40
2017-09-09T01:50:14.592Z,85.50
2017-09-09T01:52:42.227Z,85.50
2017-09-09T01:55:09.915Z,85.30
2017-09-09T01:57:37.591Z,84.50
2017-09-09T02:00:05.230Z,84.60
2017-09-09T02:02:32.934Z,84.70
2017-09-09T02:05:00.628Z,84.50
2017-09-09T02:07:28.257Z,84.70
2017-09-09T02:09:56.018Z,84.80
2017-09-09T02:12:23.662Z,84.70
2017-09-09T02:14:51.310Z,85.00
2017-09-09T02:17:19.023Z,84.80
2017-09-09T02:19:46.661Z,84.60
2017-09-09T02:22:14.298Z,84.40
2017-09-09T02:24:41.991Z,84.20
2017-09-09T02:27:09.637Z,84.40
2017-09-09T02:29:37.283Z,84.90
2017-09-09T02:32:05.029Z,84.90
2017-09-09T02:34:32.664Z,84.90
2017-09-09T02:37:00.421Z,84.80
2017-09-09T02:39:28.123Z,85.10
2017-09-09T02:41:55.749Z,85.10
2017-09-09T02:44:23.386Z,84.90
2017-09-09T02:46:51.195Z,85.30
2017-09-09T02:49:18.841Z,85.60
2017-09-09T02:51:46.473Z,85.80
2017-09-09T02:54:14.246Z,85.90
2017-09-09T02:56:41.991Z,85.50
2017-09-09T02:59:09.626Z,85.50
2017-09-09T03:01:37.379Z,86.20
2017-09-09T03:04:05.029Z,85.80
2017-09-09T03:06:32.662Z,88.50
2017-09-09T03:09:00.345Z,88.00
2017-09-09T03:11:27.979Z,88.00
2017-09-09T03:13:55.610Z,87.70
2017-09-09T03:16:23.399Z,87.50
2017-09-09T03:18:51.104Z,88.20
2017-09-09T03:21:18.749Z,88.20
2017-09-09T03:23:46.434Z,87.70
2017-09-09T03:26:14.074Z,88.00
2017-09-09T03:28:42.111Z,88.00
2017-09-09T03:31:09.797Z,88.00
2017-09-09T03:33:37.426Z,88.10
2017-09-09T03:36:05.129Z,87.80
2017-09-09T03:38:32.838Z,87.80
2017-09-09T03:41:00.726Z,88.00
2017-09-09T03:43:29.170Z,87.40
2017-09-09T03:45:56.866Z,87.50
2017-09-09T03:48:24.502Z,87.90
2017-09-09T03:50:52.541Z,88.20
2017-09-09T03:53:20.370Z,88.20
2017-09-09T03:55:48.006Z,88.70
2017-09-09T03:58:15.639Z,89.20
2017-09-09T04:00:43.424Z,89.30
2017-09-09T04:03:11.067Z,89.30
2017-09-09T04:05:38.703Z,89.40
2017-09-09T04:08:06.390Z,89.50
2017-09-09T04:10:34.423Z,89.60
2017-09-09T04:13:02.065Z,89.60
2017-09-09T04:15:29.842Z,89.50
2017-09-09T04:17:57.961Z,89.40
2017-09-09T04:20:25.589Z,89.40
2017-09-09T04:25:27.858Z,89.40
2017-09-09T04:27:55.605Z,89.40
2017-09-09T04:30:23.234Z,89.60
2017-09-09T04:32:50.870Z,89.60
2017-09-09T04:35:18.570Z,89.60
2017-09-09T04:37:46.199Z,89.60
2017-09-09T04:40:13.939Z,89.40
2017-09-09T04:42:41.646Z,89.50
2017-09-09T04:45:09.327Z,89.60
2017-09-09T04:47:36.971Z,89.70
2017-09-09T04:50:04.662Z,89.70
2017-09-09T04:52:32.298Z,89.50
2017-09-09T04:55:00.419Z,89.50
2017-09-09T04:57:28.266Z,89.50
2017-09-09T04:59:56.015Z,89.50
2017-09-09T05:02:23.643Z,89.30
2017-09-09T05:04:51.513Z,89.10
2017-09-09T05:07:19.170Z,88.70
2017-09-09T05:09:46.824Z,88.40
2017-09-09T05:12:14.552Z,88.00
2017-09-09T05:14:42.185Z,87.30
2017-09-09T05:17:09.822Z,87.40
2017-09-09T05:19:37.688Z,87.50
2017-09-09T05:22:05.435Z,87.20
2017-09-09T05:24:33.070Z,86.60
2017-09-09T05:27:01.014Z,86.40
2017-09-09T05:29:28.702Z,86.60
2017-09-09T05:31:56.338Z,86.50
2017-09-09T05:34:24.027Z,86.20
2017-09-09T05:36:51.678Z,86.30
2017-09-09T05:39:19.317Z,86.20
2017-09-09T05:41:47.039Z,85.90
2017-09-09T05:44:14.678Z,85.40
2017-09-09T05:46:42.714Z,85.10
2017-09-09T05:49:10.422Z,85.10
2017-09-09T05:51:38.062Z,85.90
2017-09-09T05:54:05.711Z,86.20
2017-09-09T05:56:33.498Z,86.30
2017-09-09T05:59:01.137Z,86.40
2017-09-09T06:01:28.774Z,86.60
2017-09-09T06:03:56.863Z,87.10
2017-09-09T06:06:24.501Z,87.10
2017-09-09T06:11:26.608Z,86.60
2017-09-09T06:13:54.250Z,86.30
2017-09-09T06:16:21.894Z,85.50
2017-09-09T06:18:49.577Z,84.40
2017-09-09T06:21:17.207Z,83.60
2017-09-09T06:23:44.846Z,82.90
2017-09-09T06:26:12.685Z,82.50
2017-09-09T06:28:40.327Z,82.30
2017-09-09T06:31:08.034Z,82.30
2017-09-09T06:33:35.722Z,82.00
2017-09-09T06:36:03.387Z,81.30
2017-09-09T06:38:31.042Z,80.70
2017-09-09T06:40:58.730Z,79.90
2017-09-09T06:43:26.371Z,79.60
2017-09-09T06:45:54.015Z,79.20
2017-09-09T06:48:21.704Z,79.00
2017-09-09T06:50:49.359Z,80.00
2017-09-09T06:53:17.004Z,79.40
2017-09-09T06:55:44.966Z,77.70
2017-09-09T06:58:12.622Z,77.90
2017-09-09T07:00:40.450Z,79.00
2017-09-09T07:03:08.422Z,79.90
2017-09-09T07:05:36.149Z,80.60
2017-09-09T07:08:03.896Z,80.90
2017-09-09T07:10:31.597Z,81.20
2017-09-09T07:12:59.235Z,81.30
2017-09-09T07:15:26.954Z,81.50
2017-09-09T07:17:54.747Z,81.50
2017-09-09T07:20:22.382Z,81.70
2017-09-09T07:22:50.046Z,82.30
2017-09-09T07:25:17.754Z,82.20
2017-09-09T07:27:45.466Z,82.20
2017-09-09T07:30:13.218Z,82.90
2017-09-09T07:32:40.914Z,83.10
2017-09-09T07:35:08.558Z,83.20
2017-09-09T07:37:36.199Z,83.50
2017-09-09T07:40:03.903Z,83.60
2017-09-09T07:42:31.691Z,83.50
2017-09-09T07:44:59.497Z,83.30
2017-09-09T07:47:27.499Z,83.00
2017-09-09T07:49:55.281Z,83.00
2017-09-09T07:52:23.026Z,82.60
2017-09-09T07:54:51.404Z,82.40
2017-09-09T07:57:19.051Z,82.40
2017-09-09T07:59:46.685Z,82.00
2017-09-09T08:02:14.386Z,81.50
2017-09-09T08:04:42.082Z,81.60
2017-09-09T08:07:09.828Z,81.80
2017-09-09T08:09:37.579Z,81.30
2017-09-09T08:12:05.209Z,81.40
2017-09-09T08:14:32.870Z,81.50
2017-09-09T08:17:00.552Z,81.60
2017-09-09T08:19:28.185Z,81.20
2017-09-09T08:21:56.316Z,80.40
2017-09-09T08:24:24.001Z,80.40
2017-09-09T08:26:51.642Z,81.50
2017-09-09T08:29:19.764Z,80.90
2017-09-09T08:31:47.570Z,80.90
2017-09-09T08:34:15.304Z,81.20
2017-09-09T08:36:42.993Z,81.10
2017-09-09T08:39:10.864Z,80.40
2017-09-09T08:41:38.518Z,78.80
2017-09-09T08:44:06.653Z,78.40
2017-09-09T08:46:34.425Z,78.40
2017-09-09T08:49:02.515Z,77.40
2017-09-09T08:51:30.151Z,77.30
2017-09-09T08:53:57.951Z,76.30
2017-09-09T08:56:25.586Z,75.70
2017-09-09T08:58:53.218Z,75.80
2017-09-09T09:01:20.993Z,74.10
2017-09-09T09:03:48.636Z,73.10
2017-09-09T09:06:16.384Z,73.40
2017-09-09T09:08:44.089Z,73.00
2017-09-09T09:11:11.722Z,73.80
2017-09-09T09:13:39.363Z,71.30
2017-09-09T09:16:07.098Z,72.40
2017-09-09T09:18:34.730Z,71.70
2017-09-09T09:21:02.366Z,71.20
2017-09-09T09:23:30.141Z,73.30
2017-09-09T09:25:58.174Z,73.60
2017-09-09T09:28:25.904Z,73.60
2017-09-09T09:30:53.592Z,71.50
2017-09-09T09:33:21.653Z,71.90
2017-09-09T09:35:49.287Z,71.90
2017-09-09T09:38:17.407Z,72.10
2017-09-09T09:40:45.059Z,72.10
2017-09-09T09:43:12.705Z,72.50
2017-09-09T09:45:40.444Z,69.80
2017-09-09T09:48:08.090Z,70.50
2017-09-09T09:50:35.738Z,71.70
2017-09-09T09:53:03.481Z,72.30
2017-09-09T09:55:31.242Z,68.90
2017-09-09T09:57:58.975Z,70.60
2017-09-09T10:00:26.677Z,69.70
2017-09-09T10:02:54.305Z,68.60
2017-09-09T10:05:22.334Z,67.60
2017-09-09T10:07:50.030Z,67.70
2017-09-09T10:10:17.673Z,65.10
2017-09-09T10:12:45.314Z,66.70
2017-09-09T10:15:13.105Z,64.20
2017-09-09T10:17:40.729Z,65.80
2017-09-09T10:20:08.395Z,63.60
2017-09-09T10:22:36.209Z,65.60
2017-09-09T10:25:09.829Z,64.70
2017-09-09T10:27:37.638Z,65.20
2017-09-09T10:30:05.266Z,65.70
2017-09-09T10:32:32.939Z,65.60
2017-09-09T10:35:00.715Z,67.60
2017-09-09T10:37:28.671Z,66.30
2017-09-09T10:39:56.519Z,65.60
2017-09-09T10:42:24.264Z,66.20
2017-09-09T10:44:52.012Z,66.10
2017-09-09T10:47:19.645Z,64.50
2017-09-09T10:49:47.406Z,65.00
2017-09-09T10:52:15.050Z,66.10
2017-09-09T10:54:42.676Z,67.20
2017-09-09T10:57:10.365Z,64.90
2017-09-09T10:59:38.497Z,65.10
2017-09-09T11:02:06.244Z,65.10
2017-09-09T11:04:33.928Z,63.60
2017-09-09T11:07:01.567Z,62.80
2017-09-09T11:09:29.690Z,62.50
2017-09-09T11:11:57.555Z,62.50
2017-09-09T11:14:25.195Z,64.70
2017-09-09T11:16:52.932Z,65.40
2017-09-09T11:19:20.682Z,65.10
2017-09-09T11:21:48.429Z,65.60
2017-09-09T11:24:16.461Z,63.40
2017-09-09T11:26:44.362Z,63.40
2017-09-09T11:29:12.490Z,63.80
2017-09-09T11:31:40.236Z,63.80
2017-09-09T11:34:07.922Z,63.40
2017-09-09T11:36:35.575Z,64.20
2017-09-09T11:39:03.330Z,63.80
2017-09-09T11:41:31.123Z,64.80
2017-09-09T11:43:58.764Z,63.20
2017-09-09T11:46:26.514Z,63.40
2017-09-09T11:48:54.190Z,62.90
2017-09-09T11:51:22.316Z,63.90
2017-09-09T11:53:49.950Z,63.90
2017-09-09T11:56:17.781Z,64.60
2017-09-09T11:58:45.414Z,64.90
2017-09-09T12:01:13.059Z,64.40
2017-09-09T12:03:40.851Z,64.60
2017-09-09T12:06:08.802Z,65.00
2017-09-09T12:08:36.434Z,65.60
2017-09-09T12:11:04.194Z,66.30
2017-09-09T12:13:31.826Z,66.70
2017-09-09T12:15:59.458Z,65.90
2017-09-09T12:18:27.231Z,66.90
2017-09-09T12:20:54.855Z,67.20
2017-09-09T12:23:22.486Z,67.10
2017-09-09T12:25:50.357Z,67.00
2017-09-09T12:28:17.998Z,66.60
2017-09-09T12:30:45.663Z,67.00
2017-09-09T12:33:13.353Z,68.10
2017-09-09T12:35:40.995Z,65.30
2017-09-09T12:38:08.631Z,64.50
2017-09-09T12:40:36.753Z,64.50
2017-09-09T12:43:04.397Z,64.50
2017-09-09T12:45:32.145Z,64.50
2017-09-09T12:47:59.934Z,65.10
2017-09-09T12:50:27.621Z,63.00
2017-09-09T12:52:55.284Z,62.50
2017-09-09T12:55:22.969Z,62.50
2017-09-09T12:57:51.089Z,63.60
2017-09-09T13:00:18.731Z,63.60
2017-09-09T13:02:46.422Z,64.30
2017-09-09T13:05:14.061Z,64.40
2017-09-09T13:07:41.770Z,64.60
2017-09-09T13:10:09.625Z,63.90
2017-09-09T13:12:37.265Z,63.70
2017-09-09T13:15:05.011Z,64.10
2017-09-09T13:17:32.759Z,65.10
2017-09-09T13:20:00.402Z,63.70
2017-09-09T13:22:28.048Z,64.70
2017-09-09T13:24:55.730Z,65.40
2017-09-09T13:27:23.849Z,66.60
2017-09-09T13:29:51.600Z,66.60
2017-09-09T13:32:19.293Z,65.80
2017-09-09T13:34:46.992Z,66.50
2017-09-09T13:37:14.739Z,67.00
2017-09-09T13:39:42.589Z,67.10
2017-09-09T13:42:10.337Z,67.20
2017-09-09T13:44:37.966Z,67.20
2017-09-09T13:47:05.727Z,68.50
2017-09-09T13:49:33.374Z,69.40
2017-09-09T13:52:01.119Z,69.40
2017-09-09T13:54:28.969Z,69.60
2017-09-09T13:56:56.715Z,69.90
2017-09-09T13:59:24.353Z,70.40
2017-09-09T14:01:52.109Z,70.00
2017-09-09T14:04:19.799Z,70.70
2017-09-09T14:06:47.434Z,71.10
2017-09-09T14:09:15.146Z,71.60
2017-09-09T14:11:42.787Z,72.00
2017-09-09T14:14:10.430Z,72.10
2017-09-09T14:16:38.283Z,72.80
2017-09-09T14:19:05.918Z,73.00
2017-09-09T14:21:33.551Z,73.20
2017-09-09T14:24:01.246Z,72.40
2017-09-09T14:26:29.278Z,73.30
2017-09-09T14:28:57.023Z,73.30
2017-09-09T14:31:24.871Z,72.80
2017-09-09T14:33:52.542Z,72.40
2017-09-09T14:36:20.267Z,72.90
2017-09-09T14:38:47.953Z,72.50
2017-09-09T14:41:15.590Z,72.90
2017-09-09T14:43:43.274Z,73.10
2017-09-09T14:46:10.958Z,72.90
2017-09-09T14:48:38.696Z,73.30
2017-09-09T14:51:06.342Z,73.20
2017-09-09T14:53:34.030Z,73.60
2017-09-09T14:56:01.665Z,73.10
2017-09-09T14:58:29.787Z,73.60
2017-09-09T15:00:57.575Z,73.50
2017-09-09T15:03:25.227Z,74.10
2017-09-09T15:05:52.933Z,74.20
2017-09-09T15:08:20.632Z,74.60
2017-09-09T15:10:48.271Z,74.90
2017-09-09T15:13:15.963Z,75.10
2017-09-09T15:15:43.647Z,74.70
2017-09-09T15:18:11.767Z,75.10
2017-09-09T15:20:39.402Z,75.10
2017-09-09T15:23:07.078Z,75.30
2017-09-09T15:25:35.115Z,75.20
2017-09-09T15:28:02.858Z,75.10
2017-09-09T15:30:30.536Z,75.10
2017-09-09T15:32:58.566Z,75.00
2017-09-09T15:35:26.201Z,75.00
2017-09-09T15:37:53.949Z,75.60
2017-09-09T15:40:21.592Z,75.50
2017-09-09T15:42:49.240Z,75.30
2017-09-09T15:45:16.989Z,75.50
2017-09-09T15:47:44.681Z,75.60
2017-09-09T15:50:12.381Z,75.70
2017-09-09T15:52:40.082Z,75.30
2017-09-09T15:55:07.719Z,75.30
2017-09-09T15:57:35.355Z,75.50
2017-09-09T16:00:03.063Z,75.30
2017-09-09T16:02:30.693Z,75.00
2017-09-09T16:04:58.326Z,75.00
2017-09-09T16:07:26.009Z,75.00
2017-09-09T16:09:53.646Z,75.30
2017-09-09T16:12:21.298Z,75.60
2017-09-09T16:14:48.998Z,75.10
2017-09-09T16:17:16.681Z,75.80
2017-09-09T16:19:44.427Z,75.90
2017-09-09T16:22:12.278Z,76.20
2017-09-09T16:24:39.905Z,76.30
2017-09-09T16:27:07.542Z,76.60
2017-09-09T16:29:35.245Z,76.10
2017-09-09T16:32:03.577Z,76.20
2017-09-09T16:34:31.218Z,76.20
2017-09-09T16:36:59.004Z,76.00
2017-09-09T16:39:26.638Z,76.00
2017-09-09T16:41:54.356Z,75.90
2017-09-09T16:44:22.105Z,75.80
2017-09-09T16:46:49.786Z,76.10
2017-09-09T16:49:17.908Z,77.40
2017-09-09T16:51:45.590Z,77.40
2017-09-09T16:54:13.226Z,77.60
2017-09-09T16:56:40.945Z,77.10
2017-09-09T16:59:08.649Z,77.40
2017-09-09T17:01:36.286Z,77.40
2017-09-09T17:04:03.919Z,78.60
2017-09-09T17:06:31.607Z,78.00
2017-09-09T17:08:59.249Z,78.20
2017-09-09T17:11:26.885Z,78.20
2017-09-09T17:13:54.766Z,78.30
2017-09-09T17:16:22.410Z,78.40
2017-09-09T17:18:50.160Z,78.80
2017-09-09T17:21:17.906Z,79.20
2017-09-09T17:23:45.539Z,79.70
2017-09-09T17:26:13.174Z,79.40
2017-09-09T17:28:40.879Z,79.80
2017-09-09T17:31:08.530Z,79.90
2017-09-09T17:33:36.233Z,80.00
2017-09-09T17:36:03.979Z,80.10
2017-09-09T17:38:31.632Z,80.00
2017-09-09T17:40:59.372Z,80.70
2017-09-09T17:43:27.119Z,81.00
2017-09-09T17:45:54.801Z,81.30
2017-09-09T17:48:22.511Z,81.40
2017-09-09T17:50:50.466Z,81.50
2017-09-09T17:53:18.521Z,81.80
2017-09-09T17:55:46.170Z,81.80
2017-09-09T17:58:13.894Z,81.70
2017-09-09T18:00:41.660Z,81.90
2017-09-09T18:03:09.285Z,82.10
2017-09-09T18:05:37.052Z,82.10
2017-09-09T18:08:04.691Z,82.30
2017-09-09T18:10:32.329Z,82.40
2017-09-09T18:13:00.027Z,82.20
2017-09-09T18:15:28.143Z,82.40
2017-09-09T18:17:55.889Z,82.30
2017-09-09T18:20:23.603Z,82.40
2017-09-09T18:22:52.103Z,82.10
2017-09-09T18:25:19.830Z,82.80
2017-09-09T18:27:47.598Z,82.50
2017-09-09T18:30:15.346Z,82.90
2017-09-09T18:32:43.093Z,82.90
2017-09-09T18:35:11.006Z,82.80
2017-09-09T18:37:38.646Z,82.60
2017-09-09T18:40:06.285Z,82.60
2017-09-09T18:42:34.081Z,82.80
2017-09-09T18:45:01.722Z,82.90
2017-09-09T18:47:29.473Z,82.80
2017-09-09T18:49:57.154Z,82.70
2017-09-09T18:52:24.795Z,82.80
2017-09-09T18:54:52.920Z,82.80
2017-09-09T18:57:20.615Z,82.80
2017-09-09T18:59:48.290Z,82.80
2017-09-09T19:02:15.962Z,82.90
2017-09-09T19:04:43.649Z,82.90
2017-09-09T19:07:11.286Z,82.90
2017-09-09T19:09:38.995Z,82.70
2017-09-09T19:12:06.710Z,81.80
2017-09-09T19:14:34.354Z,81.50
2017-09-09T19:17:02.031Z,81.70
2017-09-09T19:19:29.779Z,81.50
2017-09-09T19:21:58.652Z,81.40
2017-09-09T19:24:26.400Z,81.60
2017-09-09T19:26:54.189Z,81.50
2017-09-09T19:29:21.869Z,81.80
2017-09-09T19:31:49.511Z,81.70
2017-09-09T19:34:17.409Z,81.70
2017-09-09T19:36:45.078Z,81.90
2017-09-09T19:39:12.718Z,82.00
2017-09-09T19:41:40.514Z,82.10
2017-09-09T19:44:08.173Z,82.30
2017-09-09T19:46:35.815Z,82.40
2017-09-09T19:49:03.566Z,82.40
2017-09-09T19:51:31.315Z,82.20
2017-09-09T19:53:58.971Z,82.10
2017-09-09T19:56:26.707Z,82.20
2017-09-09T19:58:54.350Z,83.70
2017-09-09T20:01:22.098Z,83.90
2017-09-09T20:03:50.286Z,84.50
2017-09-09T20:06:18.006Z,85.00
2017-09-09T20:08:45.658Z,85.30
2017-09-09T20:11:13.396Z,85.60
2017-09-09T20:13:41.040Z,85.80
2017-09-09T20:16:08.790Z,86.10
2017-09-09T20:18:36.535Z,86.50
2017-09-09T20:21:04.227Z,87.20
2017-09-09T20:23:32.029Z,86.40
2017-09-09T20:25:59.906Z,86.50
2017-09-09T20:28:27.655Z,86.90
2017-09-09T20:30:55.286Z,87.00
2017-09-09T20:33:22.982Z,87.20
2017-09-09T20:35:50.771Z,87.70
2017-09-09T20:38:18.469Z,87.90
2017-09-09T20:40:46.263Z,88.20
2017-09-09T20:43:13.911Z,87.90
2017-09-09T20:45:41.794Z,87.80
2017-09-09T20:48:09.553Z,88.00
2017-09-09T20:50:37.251Z,87.90
2017-09-09T20:53:04.942Z,87.50
2017-09-09T20:55:32.745Z,88.10
2017-09-09T20:58:00.438Z,87.90
2017-09-09T21:00:28.135Z,87.70
2017-09-09T21:02:55.846Z,88.00
2017-09-09T21:05:23.550Z,87.90
2017-09-09T21:07:51.279Z,87.80
2017-09-09T21:10:19.025Z,87.30
2017-09-09T21:12:46.653Z,87.40
2017-09-09T21:15:14.295Z,87.20
2017-09-09T21:17:42.165Z,87.30
2017-09-09T21:20:09.807Z,86.80
2017-09-09T21:22:37.458Z,86.60
2017-09-09T21:25:05.204Z,86.90
2017-09-09T21:27:32.948Z,87.40
2017-09-09T21:30:00.697Z,86.60
2017-09-09T21:32:28.414Z,87.30
2017-09-09T21:34:56.087Z,87.20
2017-09-09T21:37:24.270Z,87.90
2017-09-09T21:39:52.346Z,88.50
2017-09-09T21:42:20.049Z,88.50
2017-09-09T21:44:47.681Z,88.10
2017-09-09T21:47:15.441Z,87.80
2017-09-09T21:49:43.084Z,88.00
2017-09-09T21:52:10.729Z,88.40
2017-09-09T21:54:38.426Z,88.20
2017-09-09T21:57:06.074Z,88.00
2017-09-09T21:59:33.722Z,88.80
2017-09-09T22:02:01.415Z,88.60
2017-09-09T22:04:29.051Z,88.30
2017-09-09T22:06:56.690Z,88.50
2017-09-09T22:09:24.447Z,88.40
2017-09-09T22:11:52.142Z,88.60
2017-09-09T22:14:19.775Z,88.90
2017-09-09T22:16:47.914Z,88.80
2017-09-09T22:19:15.559Z,88.80
2017-09-09T22:21:43.289Z,88.70
2017-09-09T22:24:10.986Z,88.70
2017-09-09T22:26:39.545Z,88.60
2017-09-09T22:29:07.245Z,89.10
2017-09-09T22:31:34.933Z,89.20
2017-09-09T22:34:02.561Z,89.00
2017-09-09T22:36:30.210Z,89.00
2017-09-09T22:38:58.301Z,89.20
2017-09-09T22:41:25.934Z,89.20
2017-09-09T22:43:53.570Z,89.30
2017-09-09T22:46:21.684Z,90.00
2017-09-09T22:48:49.311Z,90.00
2017-09-09T22:51:16.947Z,90.10
2017-09-09T22:53:44.737Z,90.10
2017-09-09T22:56:12.467Z,89.50
2017-09-09T22:58:40.215Z,89.40
2017-09-09T23:01:07.914Z,89.60
2017-09-09T23:03:35.553Z,90.00
2017-09-09T23:06:03.281Z,89.60
2017-09-09T23:08:30.963Z,89.70
2017-09-09T23:10:58.594Z,89.70
2017-09-09T23:13:26.287Z,90.00
2017-09-09T23:15:53.985Z,89.90
2017-09-09T23:18:21.655Z,90.60
2017-09-09T23:20:49.329Z,90.10
2017-09-09T23:23:17.177Z,90.00
2017-09-09T23:25:44.826Z,89.70
2017-09-09T23:28:12.463Z,90.30
2017-09-09T23:30:40.146Z,90.30
2017-09-09T23:33:07.859Z,90.10
2017-09-09T23:35:35.607Z,89.80
2017-09-09T23:38:03.354Z,89.90
2017-09-09T23:40:30.981Z,90.10
2017-09-09T23:42:58.609Z,90.40
2017-09-09T23:45:26.303Z,89.90
2017-09-09T23:47:53.934Z,89.90
2017-09-09T23:50:21.571Z,89.80
2017-09-09T23:52:49.327Z,89.70
2017-09-09T23:55:17.014Z,89.90
2017-09-09T23:57:44.650Z,90.00
